sensor_id;sensor_type;location;lat;lon;timestamp;P1;durP1;ratioP1;P2;durP2;ratioP2
14306;SDS011;7237;49.500;11.400;2023-12-14T00:01:41;5.27;;;4.03;;
14306;SDS011;7237;49.500;11.400;2023-12-14T00:04:11;4.97;;;4.33;;
14306;SDS011;7237;49.500;11.400;2023-12-14T00:06:38;6.03;;;4.43;;
14306;SDS011;7237;49.500;11.400;2023-12-14T00:09:06;5.00;;;4.23;;
14306;SDS011;7237;49.500;11.400;2023-12-14T00:11:37;5.73;;;5.10;;
14306;SDS011;7237;49.500;11.400;2023-12-14T00:14:04;6.47;;;5.23;;
14306;SDS011;7237;49.500;11.400;2023-12-14T00:16:31;5.20;;;4.80;;
14306;SDS011;7237;49.500;11.400;2023-12-14T00:18:58;7.27;;;5.50;;
14306;SDS011;7237;49.500;11.400;2023-12-14T00:21:25;6.30;;;5.70;;
14306;SDS011;7237;49.500;11.400;2023-12-14T00:23:52;7.30;;;5.37;;
14306;SDS011;7237;49.500;11.400;2023-12-14T00:26:21;6.20;;;5.07;;
14306;SDS011;7237;49.500;11.400;2023-12-14T00:28:48;7.20;;;5.83;;
14306;SDS011;7237;49.500;11.400;2023-12-14T00:31:15;6.20;;;5.60;;
14306;SDS011;7237;49.500;11.400;2023-12-14T00:33:42;7.80;;;6.40;;
14306;SDS011;7237;49.500;11.400;2023-12-14T00:36:09;7.10;;;6.03;;
14306;SDS011;7237;49.500;11.400;2023-12-14T00:38:36;7.30;;;5.57;;
14306;SDS011;7237;49.500;11.400;2023-12-14T00:41:05;9.13;;;6.37;;
14306;SDS011;7237;49.500;11.400;2023-12-14T00:43:33;7.17;;;6.47;;
14306;SDS011;7237;49.500;11.400;2023-12-14T00:46:01;7.17;;;6.27;;
14306;SDS011;7237;49.500;11.400;2023-12-14T00:48:28;6.50;;;5.90;;
14306;SDS011;7237;49.500;11.400;2023-12-14T00:50:55;7.17;;;6.47;;
14306;SDS011;7237;49.500;11.400;2023-12-14T00:53:22;6.77;;;6.03;;
14306;SDS011;7237;49.500;11.400;2023-12-14T00:55:49;7.30;;;6.27;;
14306;SDS011;7237;49.500;11.400;2023-12-14T00:58:16;7.93;;;6.37;;
14306;SDS011;7237;49.500;11.400;2023-12-14T01:00:44;7.07;;;6.30;;
14306;SDS011;7237;49.500;11.400;2023-12-14T01:03:11;6.73;;;6.03;;
14306;SDS011;7237;49.500;11.400;2023-12-14T01:05:39;6.97;;;6.37;;
14306;SDS011;7237;49.500;11.400;2023-12-14T01:08:06;7.50;;;6.73;;
14306;SDS011;7237;49.500;11.400;2023-12-14T01:10:33;7.27;;;6.57;;
14306;SDS011;7237;49.500;11.400;2023-12-14T01:13:00;7.43;;;6.53;;
14306;SDS011;7237;49.500;11.400;2023-12-14T01:15:27;7.13;;;6.43;;
14306;SDS011;7237;49.500;11.400;2023-12-14T01:17:56;8.47;;;6.43;;
14306;SDS011;7237;49.500;11.400;2023-12-14T01:20:23;8.87;;;6.77;;
14306;SDS011;7237;49.500;11.400;2023-12-14T01:22:50;6.50;;;5.83;;
14306;SDS011;7237;49.500;11.400;2023-12-14T01:25:17;7.43;;;6.60;;
14306;SDS011;7237;49.500;11.400;2023-12-14T01:27:44;7.63;;;6.93;;
14306;SDS011;7237;49.500;11.400;2023-12-14T01:30:11;9.40;;;7.07;;
14306;SDS011;7237;49.500;11.400;2023-12-14T01:32:38;7.97;;;7.17;;
14306;SDS011;7237;49.500;11.400;2023-12-14T01:35:07;7.27;;;6.57;;
14306;SDS011;7237;49.500;11.400;2023-12-14T01:37:34;7.60;;;6.90;;
14306;SDS011;7237;49.500;11.400;2023-12-14T01:40:01;7.47;;;6.77;;
14306;SDS011;7237;49.500;11.400;2023-12-14T01:42:29;8.83;;;6.63;;
14306;SDS011;7237;49.500;11.400;2023-12-14T01:44:56;7.40;;;6.70;;
14306;SDS011;7237;49.500;11.400;2023-12-14T01:47:24;7.50;;;6.73;;
14306;SDS011;7237;49.500;11.400;2023-12-14T01:49:51;7.97;;;6.53;;
14306;SDS011;7237;49.500;11.400;2023-12-14T01:52:19;7.50;;;6.77;;
14306;SDS011;7237;49.500;11.400;2023-12-14T01:54:46;7.43;;;6.70;;
14306;SDS011;7237;49.500;11.400;2023-12-14T01:57:13;7.97;;;7.17;;
14306;SDS011;7237;49.500;11.400;2023-12-14T01:59:40;8.70;;;7.57;;
14306;SDS011;7237;49.500;11.400;2023-12-14T02:02:07;8.33;;;6.73;;
14306;SDS011;7237;49.500;11.400;2023-12-14T02:04:34;7.60;;;6.70;;
14306;SDS011;7237;49.500;11.400;2023-12-14T02:07:02;7.87;;;7.07;;
14306;SDS011;7237;49.500;11.400;2023-12-14T02:09:31;7.37;;;6.63;;
14306;SDS011;7237;49.500;11.400;2023-12-14T02:11:58;11.20;;;6.67;;
14306;SDS011;7237;49.500;11.400;2023-12-14T02:14:25;8.47;;;6.33;;
14306;SDS011;7237;49.500;11.400;2023-12-14T02:16:52;7.50;;;6.80;;
14306;SDS011;7237;49.500;11.400;2023-12-14T02:19:19;7.20;;;6.40;;
14306;SDS011;7237;49.500;11.400;2023-12-14T02:21:46;6.43;;;5.83;;
14306;SDS011;7237;49.500;11.400;2023-12-14T02:24:14;9.37;;;6.30;;
14306;SDS011;7237;49.500;11.400;2023-12-14T02:26:41;7.13;;;6.43;;
14306;SDS011;7237;49.500;11.400;2023-12-14T02:29:08;8.40;;;6.37;;
14306;SDS011;7237;49.500;11.400;2023-12-14T02:31:36;6.33;;;5.73;;
14306;SDS011;7237;49.500;11.400;2023-12-14T02:34:03;8.67;;;6.27;;
14306;SDS011;7237;49.500;11.400;2023-12-14T02:36:30;7.07;;;6.37;;
14306;SDS011;7237;49.500;11.400;2023-12-14T02:38:57;7.10;;;6.37;;
14306;SDS011;7237;49.500;11.400;2023-12-14T02:41:25;8.57;;;6.97;;
14306;SDS011;7237;49.500;11.400;2023-12-14T02:43:52;7.40;;;6.70;;
14306;SDS011;7237;49.500;11.400;2023-12-14T02:46:19;9.27;;;7.37;;
14306;SDS011;7237;49.500;11.400;2023-12-14T02:48:46;9.90;;;6.90;;
14306;SDS011;7237;49.500;11.400;2023-12-14T02:51:14;8.67;;;7.67;;
14306;SDS011;7237;49.500;11.400;2023-12-14T02:53:41;8.53;;;7.53;;
14306;SDS011;7237;49.500;11.400;2023-12-14T02:56:09;7.67;;;6.70;;
14306;SDS011;7237;49.500;11.400;2023-12-14T02:58:38;8.43;;;7.63;;
14306;SDS011;7237;49.500;11.400;2023-12-14T03:01:05;8.70;;;7.80;;
14306;SDS011;7237;49.500;11.400;2023-12-14T03:03:32;7.87;;;7.07;;
14306;SDS011;7237;49.500;11.400;2023-12-14T03:05:59;8.20;;;7.40;;
14306;SDS011;7237;49.500;11.400;2023-12-14T03:08:26;8.93;;;7.40;;
14306;SDS011;7237;49.500;11.400;2023-12-14T03:10:53;11.80;;;8.07;;
14306;SDS011;7237;49.500;11.400;2023-12-14T03:13:20;9.03;;;7.83;;
14306;SDS011;7237;49.500;11.400;2023-12-14T03:15:48;9.27;;;7.53;;
14306;SDS011;7237;49.500;11.400;2023-12-14T03:18:16;9.93;;;8.50;;
14306;SDS011;7237;49.500;11.400;2023-12-14T03:20:43;10.60;;;8.90;;
14306;SDS011;7237;49.500;11.400;2023-12-14T03:23:10;9.30;;;8.30;;
14306;SDS011;7237;49.500;11.400;2023-12-14T03:25:37;10.40;;;8.33;;
14306;SDS011;7237;49.500;11.400;2023-12-14T03:28:04;8.97;;;8.07;;
14306;SDS011;7237;49.500;11.400;2023-12-14T03:30:31;10.40;;;8.43;;
14306;SDS011;7237;49.500;11.400;2023-12-14T03:33:00;12.90;;;8.90;;
14306;SDS011;7237;49.500;11.400;2023-12-14T03:35:27;11.47;;;8.30;;
14306;SDS011;7237;49.500;11.400;2023-12-14T03:37:54;11.00;;;8.40;;
14306;SDS011;7237;49.500;11.400;2023-12-14T03:40:21;12.07;;;8.87;;
14306;SDS011;7237;49.500;11.400;2023-12-14T03:42:48;13.20;;;8.70;;
14306;SDS011;7237;49.500;11.400;2023-12-14T03:45:15;9.87;;;8.40;;
14306;SDS011;7237;49.500;11.400;2023-12-14T03:47:42;11.73;;;8.40;;
14306;SDS011;7237;49.500;11.400;2023-12-14T03:50:11;10.37;;;8.97;;
14306;SDS011;7237;49.500;11.400;2023-12-14T03:52:39;13.97;;;9.13;;
14306;SDS011;7237;49.500;11.400;2023-12-14T03:55:06;10.53;;;7.93;;
14306;SDS011;7237;49.500;11.400;2023-12-14T03:57:35;9.10;;;7.53;;
14306;SDS011;7237;49.500;11.400;2023-12-14T04:00:02;7.83;;;6.80;;
14306;SDS011;7237;49.500;11.400;2023-12-14T04:02:29;8.33;;;7.33;;
14306;SDS011;7237;49.500;11.400;2023-12-14T04:04:56;9.20;;;6.60;;
14306;SDS011;7237;49.500;11.400;2023-12-14T04:07:24;8.97;;;7.73;;
14306;SDS011;7237;49.500;11.400;2023-12-14T04:09:51;9.43;;;8.30;;
14306;SDS011;7237;49.500;11.400;2023-12-14T04:12:18;8.50;;;7.60;;
14306;SDS011;7237;49.500;11.400;2023-12-14T04:14:45;8.03;;;7.23;;
14306;SDS011;7237;49.500;11.400;2023-12-14T04:17:13;10.17;;;7.23;;
14306;SDS011;7237;49.500;11.400;2023-12-14T04:19:40;10.37;;;7.40;;
14306;SDS011;7237;49.500;11.400;2023-12-14T04:22:07;12.20;;;8.00;;
14306;SDS011;7237;49.500;11.400;2023-12-14T04:24:35;9.97;;;7.77;;
14306;SDS011;7237;49.500;11.400;2023-12-14T04:27:02;8.90;;;7.97;;
14306;SDS011;7237;49.500;11.400;2023-12-14T04:29:30;9.53;;;7.87;;
14306;SDS011;7237;49.500;11.400;2023-12-14T04:31:57;7.70;;;6.90;;
14306;SDS011;7237;49.500;11.400;2023-12-14T04:34:24;8.23;;;7.00;;
14306;SDS011;7237;49.500;11.400;2023-12-14T04:36:51;10.03;;;7.03;;
14306;SDS011;7237;49.500;11.400;2023-12-14T04:39:22;7.73;;;7.03;;
14306;SDS011;7237;49.500;11.400;2023-12-14T04:41:51;8.13;;;7.23;;
14306;SDS011;7237;49.500;11.400;2023-12-14T04:44:18;7.10;;;6.40;;
14306;SDS011;7237;49.500;11.400;2023-12-14T04:46:46;7.73;;;6.47;;
14306;SDS011;7237;49.500;11.400;2023-12-14T04:49:13;7.40;;;6.70;;
14306;SDS011;7237;49.500;11.400;2023-12-14T04:51:40;7.60;;;6.53;;
14306;SDS011;7237;49.500;11.400;2023-12-14T04:54:07;7.10;;;6.40;;
14306;SDS011;7237;49.500;11.400;2023-12-14T04:56:34;7.47;;;6.40;;
14306;SDS011;7237;49.500;11.400;2023-12-14T04:59:03;7.70;;;6.50;;
14306;SDS011;7237;49.500;11.400;2023-12-14T05:01:30;7.40;;;6.43;;
14306;SDS011;7237;49.500;11.400;2023-12-14T05:03:57;8.80;;;6.47;;
14306;SDS011;7237;49.500;11.400;2023-12-14T05:06:24;7.73;;;6.47;;
14306;SDS011;7237;49.500;11.400;2023-12-14T05:08:51;7.83;;;6.00;;
14306;SDS011;7237;49.500;11.400;2023-12-14T05:11:18;7.43;;;6.03;;
14306;SDS011;7237;49.500;11.400;2023-12-14T05:13:45;6.67;;;6.00;;
14306;SDS011;7237;49.500;11.400;2023-12-14T05:16:14;6.60;;;5.97;;
14306;SDS011;7237;49.500;11.400;2023-12-14T05:18:41;7.87;;;6.27;;
14306;SDS011;7237;49.500;11.400;2023-12-14T05:21:08;5.90;;;5.00;;
14306;SDS011;7237;49.500;11.400;2023-12-14T05:23:35;7.13;;;5.80;;
14306;SDS011;7237;49.500;11.400;2023-12-14T05:26:02;6.23;;;5.60;;
14306;SDS011;7237;49.500;11.400;2023-12-14T05:28:29;8.30;;;5.90;;
14306;SDS011;7237;49.500;11.400;2023-12-14T05:30:56;6.67;;;5.83;;
14306;SDS011;7237;49.500;11.400;2023-12-14T05:33:25;6.53;;;5.83;;
14306;SDS011;7237;49.500;11.400;2023-12-14T05:35:52;12.50;;;9.30;;
14306;SDS011;7237;49.500;11.400;2023-12-14T05:38:19;9.93;;;7.80;;
14306;SDS011;7237;49.500;11.400;2023-12-14T05:40:46;7.90;;;6.50;;
14306;SDS011;7237;49.500;11.400;2023-12-14T05:43:13;7.97;;;7.03;;
14306;SDS011;7237;49.500;11.400;2023-12-14T05:45:40;11.87;;;7.40;;
14306;SDS011;7237;49.500;11.400;2023-12-14T05:48:07;8.00;;;7.20;;
14306;SDS011;7237;49.500;11.400;2023-12-14T05:50:36;8.40;;;7.23;;
14306;SDS011;7237;49.500;11.400;2023-12-14T05:53:03;9.00;;;7.57;;
14306;SDS011;7237;49.500;11.400;2023-12-14T05:55:30;7.63;;;6.73;;
14306;SDS011;7237;49.500;11.400;2023-12-14T05:57:57;10.73;;;7.53;;
14306;SDS011;7237;49.500;11.400;2023-12-14T06:00:24;8.60;;;7.70;;
14306;SDS011;7237;49.500;11.400;2023-12-14T06:02:51;8.10;;;7.27;;
14306;SDS011;7237;49.500;11.400;2023-12-14T06:05:18;7.63;;;6.90;;
14306;SDS011;7237;49.500;11.400;2023-12-14T06:07:46;10.57;;;8.53;;
14306;SDS011;7237;49.500;11.400;2023-12-14T06:10:13;10.57;;;8.67;;
14306;SDS011;7237;49.500;11.400;2023-12-14T06:12:40;10.50;;;9.23;;
14306;SDS011;7237;49.500;11.400;2023-12-14T06:15:08;10.80;;;8.27;;
14306;SDS011;7237;49.500;11.400;2023-12-14T06:17:35;10.77;;;8.10;;
14306;SDS011;7237;49.500;11.400;2023-12-14T06:20:04;9.90;;;8.20;;
14306;SDS011;7237;49.500;11.400;2023-12-14T06:22:33;11.17;;;8.90;;
14306;SDS011;7237;49.500;11.400;2023-12-14T06:25:02;12.13;;;8.93;;
14306;SDS011;7237;49.500;11.400;2023-12-14T06:27:29;11.87;;;9.90;;
14306;SDS011;7237;49.500;11.400;2023-12-14T06:29:56;14.67;;;11.10;;
14306;SDS011;7237;49.500;11.400;2023-12-14T06:32:23;16.80;;;12.80;;
14306;SDS011;7237;49.500;11.400;2023-12-14T06:34:50;13.93;;;11.57;;
14306;SDS011;7237;49.500;11.400;2023-12-14T06:37:18;13.53;;;9.93;;
14306;SDS011;7237;49.500;11.400;2023-12-14T06:39:45;12.93;;;9.83;;
14306;SDS011;7237;49.500;11.400;2023-12-14T06:42:13;12.90;;;9.80;;
14306;SDS011;7237;49.500;11.400;2023-12-14T06:44:40;11.60;;;9.80;;
14306;SDS011;7237;49.500;11.400;2023-12-14T06:47:08;12.40;;;9.23;;
14306;SDS011;7237;49.500;11.400;2023-12-14T06:49:35;13.97;;;10.33;;
14306;SDS011;7237;49.500;11.400;2023-12-14T06:52:02;13.87;;;10.80;;
14306;SDS011;7237;49.500;11.400;2023-12-14T06:54:29;16.07;;;11.67;;
14306;SDS011;7237;49.500;11.400;2023-12-14T06:56:56;16.90;;;11.07;;
14306;SDS011;7237;49.500;11.400;2023-12-14T06:59:24;13.13;;;10.73;;
14306;SDS011;7237;49.500;11.400;2023-12-14T07:01:51;14.17;;;10.53;;
14306;SDS011;7237;49.500;11.400;2023-12-14T07:04:18;14.23;;;11.10;;
14306;SDS011;7237;49.500;11.400;2023-12-14T07:06:49;14.67;;;10.67;;
14306;SDS011;7237;49.500;11.400;2023-12-14T07:09:17;15.37;;;10.83;;
14306;SDS011;7237;49.500;11.400;2023-12-14T07:11:44;13.20;;;10.63;;
14306;SDS011;7237;49.500;11.400;2023-12-14T07:14:11;11.83;;;10.07;;
14306;SDS011;7237;49.500;11.400;2023-12-14T07:16:41;10.70;;;8.60;;
14306;SDS011;7237;49.500;11.400;2023-12-14T07:19:08;13.10;;;10.47;;
14306;SDS011;7237;49.500;11.400;2023-12-14T07:21:35;13.10;;;9.47;;
14306;SDS011;7237;49.500;11.400;2023-12-14T07:24:03;11.10;;;9.20;;
14306;SDS011;7237;49.500;11.400;2023-12-14T07:26:30;10.10;;;8.97;;
14306;SDS011;7237;49.500;11.400;2023-12-14T07:28:57;11.20;;;8.60;;
14306;SDS011;7237;49.500;11.400;2023-12-14T07:31:24;13.60;;;9.83;;
14306;SDS011;7237;49.500;11.400;2023-12-14T07:33:54;11.60;;;9.17;;
14306;SDS011;7237;49.500;11.400;2023-12-14T07:36:21;10.53;;;9.43;;
14306;SDS011;7237;49.500;11.400;2023-12-14T07:38:48;9.53;;;8.53;;
14306;SDS011;7237;49.500;11.400;2023-12-14T07:41:15;9.13;;;8.17;;
14306;SDS011;7237;49.500;11.400;2023-12-14T07:43:42;10.30;;;8.23;;
14306;SDS011;7237;49.500;11.400;2023-12-14T07:46:09;9.97;;;8.10;;
14306;SDS011;7237;49.500;11.400;2023-12-14T07:48:36;11.83;;;8.47;;
14306;SDS011;7237;49.500;11.400;2023-12-14T07:51:05;10.07;;;8.30;;
14306;SDS011;7237;49.500;11.400;2023-12-14T07:53:32;9.53;;;8.53;;
14306;SDS011;7237;49.500;11.400;2023-12-14T07:55:59;10.80;;;8.57;;
14306;SDS011;7237;49.500;11.400;2023-12-14T07:58:27;10.57;;;9.13;;
14306;SDS011;7237;49.500;11.400;2023-12-14T08:00:53;9.43;;;8.47;;
14306;SDS011;7237;49.500;11.400;2023-12-14T08:03:21;9.17;;;8.23;;
14306;SDS011;7237;49.500;11.400;2023-12-14T08:05:48;9.27;;;8.30;;
14306;SDS011;7237;49.500;11.400;2023-12-14T08:08:16;9.43;;;7.63;;
14306;SDS011;7237;49.500;11.400;2023-12-14T08:10:43;10.97;;;8.27;;
14306;SDS011;7237;49.500;11.400;2023-12-14T08:13:10;8.83;;;7.73;;
14306;SDS011;7237;49.500;11.400;2023-12-14T08:15:37;9.53;;;8.27;;
14306;SDS011;7237;49.500;11.400;2023-12-14T08:18:05;10.80;;;8.60;;
14306;SDS011;7237;49.500;11.400;2023-12-14T08:20:32;9.87;;;8.73;;
14306;SDS011;7237;49.500;11.400;2023-12-14T08:22:59;11.37;;;8.30;;
14306;SDS011;7237;49.500;11.400;2023-12-14T08:25:28;12.63;;;9.13;;
14306;SDS011;7237;49.500;11.400;2023-12-14T08:27:55;11.40;;;8.53;;
14306;SDS011;7237;49.500;11.400;2023-12-14T08:30:22;11.87;;;9.40;;
14306;SDS011;7237;49.500;11.400;2023-12-14T08:32:50;12.97;;;10.33;;
14306;SDS011;7237;49.500;11.400;2023-12-14T08:35:17;11.03;;;9.57;;
14306;SDS011;7237;49.500;11.400;2023-12-14T08:37:44;11.20;;;9.37;;
14306;SDS011;7237;49.500;11.400;2023-12-14T08:40:11;12.83;;;9.47;;
14306;SDS011;7237;49.500;11.400;2023-12-14T08:42:40;13.67;;;10.43;;
14306;SDS011;7237;49.500;11.400;2023-12-14T08:45:07;10.87;;;9.40;;
14306;SDS011;7237;49.500;11.400;2023-12-14T08:47:36;11.27;;;9.53;;
14306;SDS011;7237;49.500;11.400;2023-12-14T08:50:04;10.77;;;8.53;;
14306;SDS011;7237;49.500;11.400;2023-12-14T08:52:31;11.57;;;8.40;;
14306;SDS011;7237;49.500;11.400;2023-12-14T08:54:58;12.17;;;9.17;;
14306;SDS011;7237;49.500;11.400;2023-12-14T08:57:26;12.43;;;8.70;;
14306;SDS011;7237;49.500;11.400;2023-12-14T08:59:55;10.67;;;9.07;;
14306;SDS011;7237;49.500;11.400;2023-12-14T09:02:22;10.57;;;9.47;;
14306;SDS011;7237;49.500;11.400;2023-12-14T09:04:49;10.87;;;9.77;;
14306;SDS011;7237;49.500;11.400;2023-12-14T09:07:16;11.37;;;9.10;;
14306;SDS011;7237;49.500;11.400;2023-12-14T09:09:43;11.23;;;9.80;;
14306;SDS011;7237;49.500;11.400;2023-12-14T09:12:10;10.07;;;8.33;;
14306;SDS011;7237;49.500;11.400;2023-12-14T09:14:38;9.70;;;8.80;;
14306;SDS011;7237;49.500;11.400;2023-12-14T09:17:06;10.13;;;7.90;;
14306;SDS011;7237;49.500;11.400;2023-12-14T09:19:33;11.60;;;9.53;;
14306;SDS011;7237;49.500;11.400;2023-12-14T09:22:00;12.10;;;8.90;;
14306;SDS011;7237;49.500;11.400;2023-12-14T09:24:27;10.47;;;8.90;;
14306;SDS011;7237;49.500;11.400;2023-12-14T09:26:54;10.43;;;9.03;;
14306;SDS011;7237;49.500;11.400;2023-12-14T09:29:22;10.30;;;8.60;;
14306;SDS011;7237;49.500;11.400;2023-12-14T09:31:49;10.20;;;9.00;;
14306;SDS011;7237;49.500;11.400;2023-12-14T09:34:17;12.20;;;10.33;;
14306;SDS011;7237;49.500;11.400;2023-12-14T09:36:44;9.90;;;8.43;;
14306;SDS011;7237;49.500;11.400;2023-12-14T09:39:11;12.43;;;9.90;;
14306;SDS011;7237;49.500;11.400;2023-12-14T09:41:40;12.57;;;9.63;;
14306;SDS011;7237;49.500;11.400;2023-12-14T09:44:07;13.13;;;9.83;;
14306;SDS011;7237;49.500;11.400;2023-12-14T09:46:36;11.43;;;9.57;;
14306;SDS011;7237;49.500;11.400;2023-12-14T09:49:03;10.47;;;9.37;;
14306;SDS011;7237;49.500;11.400;2023-12-14T09:51:32;9.90;;;8.30;;
14306;SDS011;7237;49.500;11.400;2023-12-14T09:53:59;10.50;;;8.50;;
14306;SDS011;7237;49.500;11.400;2023-12-14T09:56:26;11.50;;;9.20;;
14306;SDS011;7237;49.500;11.400;2023-12-14T09:58:53;9.97;;;8.97;;
14306;SDS011;7237;49.500;11.400;2023-12-14T10:01:22;10.90;;;8.50;;
14306;SDS011;7237;49.500;11.400;2023-12-14T10:03:50;13.03;;;9.27;;
14306;SDS011;7237;49.500;11.400;2023-12-14T10:06:17;9.57;;;8.53;;
14306;SDS011;7237;49.500;11.400;2023-12-14T10:08:54;10.57;;;9.07;;
14306;SDS011;7237;49.500;11.400;2023-12-14T10:11:22;10.53;;;8.80;;
14306;SDS011;7237;49.500;11.400;2023-12-14T10:13:49;10.43;;;8.70;;
14306;SDS011;7237;49.500;11.400;2023-12-14T10:16:26;12.37;;;9.23;;
14306;SDS011;7237;49.500;11.400;2023-12-14T10:18:55;9.07;;;8.13;;
14306;SDS011;7237;49.500;11.400;2023-12-14T10:21:22;10.50;;;8.73;;
14306;SDS011;7237;49.500;11.400;2023-12-14T10:23:49;10.23;;;8.57;;
14306;SDS011;7237;49.500;11.400;2023-12-14T10:26:17;9.53;;;8.57;;
14306;SDS011;7237;49.500;11.400;2023-12-14T10:28:44;9.97;;;8.90;;
14306;SDS011;7237;49.500;11.400;2023-12-14T10:31:11;10.20;;;8.47;;
14306;SDS011;7237;49.500;11.400;2023-12-14T10:33:40;9.13;;;8.23;;
14306;SDS011;7237;49.500;11.400;2023-12-14T10:36:07;8.80;;;7.90;;
14306;SDS011;7237;49.500;11.400;2023-12-14T10:38:35;8.40;;;7.50;;
14306;SDS011;7237;49.500;11.400;2023-12-14T10:41:04;10.60;;;8.47;;
14306;SDS011;7237;49.500;11.400;2023-12-14T10:43:34;12.87;;;9.23;;
14306;SDS011;7237;49.500;11.400;2023-12-14T10:46:04;12.17;;;8.93;;
14306;SDS011;7237;49.500;11.400;2023-12-14T10:48:31;10.47;;;8.63;;
14306;SDS011;7237;49.500;11.400;2023-12-14T10:50:59;11.63;;;9.43;;
14306;SDS011;7237;49.500;11.400;2023-12-14T10:53:29;11.93;;;10.53;;
14306;SDS011;7237;49.500;11.400;2023-12-14T10:55:56;11.70;;;9.73;;
14306;SDS011;7237;49.500;11.400;2023-12-14T10:58:24;12.03;;;10.00;;
14306;SDS011;7237;49.500;11.400;2023-12-14T11:00:58;12.00;;;9.60;;
14306;SDS011;7237;49.500;11.400;2023-12-14T11:03:30;14.93;;;11.17;;
14306;SDS011;7237;49.500;11.400;2023-12-14T11:05:59;9.67;;;8.40;;
14306;SDS011;7237;49.500;11.400;2023-12-14T11:08:26;13.67;;;9.83;;
14306;SDS011;7237;49.500;11.400;2023-12-14T11:10:54;15.10;;;10.40;;
14306;SDS011;7237;49.500;11.400;2023-12-14T11:13:26;11.20;;;9.97;;
14306;SDS011;7237;49.500;11.400;2023-12-14T11:15:53;12.53;;;10.77;;
14306;SDS011;7237;49.500;11.400;2023-12-14T11:18:28;12.03;;;10.27;;
14306;SDS011;7237;49.500;11.400;2023-12-14T11:20:56;16.30;;;10.80;;
14306;SDS011;7237;49.500;11.400;2023-12-14T11:23:32;15.73;;;11.40;;
14306;SDS011;7237;49.500;11.400;2023-12-14T11:26:00;12.27;;;10.33;;
14306;SDS011;7237;49.500;11.400;2023-12-14T11:28:29;11.37;;;10.00;;
14306;SDS011;7237;49.500;11.400;2023-12-14T11:30:56;11.73;;;10.53;;
14306;SDS011;7237;49.500;11.400;2023-12-14T11:33:23;14.63;;;11.23;;
14306;SDS011;7237;49.500;11.400;2023-12-14T11:35:53;11.87;;;10.40;;
14306;SDS011;7237;49.500;11.400;2023-12-14T11:38:21;11.37;;;10.17;;
14306;SDS011;7237;49.500;11.400;2023-12-14T11:40:49;13.27;;;10.23;;
14306;SDS011;7237;49.500;11.400;2023-12-14T11:43:16;10.17;;;9.10;;
14306;SDS011;7237;49.500;11.400;2023-12-14T11:45:45;9.83;;;8.47;;
14306;SDS011;7237;49.500;11.400;2023-12-14T11:48:12;10.57;;;8.60;;
14306;SDS011;7237;49.500;11.400;2023-12-14T11:50:40;10.67;;;9.20;;
14306;SDS011;7237;49.500;11.400;2023-12-14T11:53:09;12.77;;;9.73;;
14306;SDS011;7237;49.500;11.400;2023-12-14T11:55:38;13.10;;;10.00;;
14306;SDS011;7237;49.500;11.400;2023-12-14T11:58:05;9.37;;;8.37;;
14306;SDS011;7237;49.500;11.400;2023-12-14T12:00:33;12.27;;;9.07;;
14306;SDS011;7237;49.500;11.400;2023-12-14T12:03:09;11.33;;;9.33;;
14306;SDS011;7237;49.500;11.400;2023-12-14T12:05:36;10.43;;;8.60;;
14306;SDS011;7237;49.500;11.400;2023-12-14T12:08:04;12.90;;;9.73;;
14306;SDS011;7237;49.500;11.400;2023-12-14T12:10:32;10.83;;;9.60;;
14306;SDS011;7237;49.500;11.400;2023-12-14T12:13:01;13.00;;;9.60;;
14306;SDS011;7237;49.500;11.400;2023-12-14T12:15:28;11.17;;;9.80;;
14306;SDS011;7237;49.500;11.400;2023-12-14T12:17:56;14.30;;;9.97;;
14306;SDS011;7237;49.500;11.400;2023-12-14T12:20:23;12.17;;;9.33;;
14306;SDS011;7237;49.500;11.400;2023-12-14T12:22:52;13.17;;;10.43;;
14306;SDS011;7237;49.500;11.400;2023-12-14T12:25:19;11.90;;;9.53;;
14306;SDS011;7237;49.500;11.400;2023-12-14T12:27:49;12.23;;;9.70;;
14306;SDS011;7237;49.500;11.400;2023-12-14T12:30:16;11.40;;;9.87;;
14306;SDS011;7237;49.500;11.400;2023-12-14T12:32:43;11.43;;;9.50;;
14306;SDS011;7237;49.500;11.400;2023-12-14T12:35:10;10.37;;;9.27;;
14306;SDS011;7237;49.500;11.400;2023-12-14T12:37:38;11.20;;;9.03;;
14306;SDS011;7237;49.500;11.400;2023-12-14T12:40:06;10.40;;;9.27;;
14306;SDS011;7237;49.500;11.400;2023-12-14T12:42:33;15.37;;;11.97;;
14306;SDS011;7237;49.500;11.400;2023-12-14T12:45:02;16.87;;;10.97;;
14306;SDS011;7237;49.500;11.400;2023-12-14T12:47:29;11.47;;;9.97;;
14306;SDS011;7237;49.500;11.400;2023-12-14T12:49:56;10.40;;;9.30;;
14306;SDS011;7237;49.500;11.400;2023-12-14T12:52:23;12.83;;;9.77;;
14306;SDS011;7237;49.500;11.400;2023-12-14T12:54:50;12.83;;;11.50;;
14306;SDS011;7237;49.500;11.400;2023-12-14T12:57:17;15.67;;;12.33;;
14306;SDS011;7237;49.500;11.400;2023-12-14T12:59:44;17.23;;;13.47;;
14306;SDS011;7237;49.500;11.400;2023-12-14T13:02:13;17.30;;;12.57;;
14306;SDS011;7237;49.500;11.400;2023-12-14T13:04:40;15.03;;;12.10;;
14306;SDS011;7237;49.500;11.400;2023-12-14T13:07:07;21.90;;;12.40;;
14306;SDS011;7237;49.500;11.400;2023-12-14T13:09:34;14.70;;;12.93;;
14306;SDS011;7237;49.500;11.400;2023-12-14T13:12:02;18.60;;;14.27;;
14306;SDS011;7237;49.500;11.400;2023-12-14T13:14:29;20.57;;;14.10;;
14306;SDS011;7237;49.500;11.400;2023-12-14T13:16:57;15.37;;;12.50;;
14306;SDS011;7237;49.500;11.400;2023-12-14T13:19:25;15.07;;;11.03;;
14306;SDS011;7237;49.500;11.400;2023-12-14T13:21:53;14.40;;;11.03;;
14306;SDS011;7237;49.500;11.400;2023-12-14T13:24:24;14.23;;;11.10;;
14306;SDS011;7237;49.500;11.400;2023-12-14T13:26:51;18.17;;;11.47;;
14306;SDS011;7237;49.500;11.400;2023-12-14T13:29:18;14.33;;;9.37;;
14306;SDS011;7237;49.500;11.400;2023-12-14T13:31:45;9.00;;;8.10;;
14306;SDS011;7237;49.500;11.400;2023-12-14T13:34:12;12.93;;;8.77;;
14306;SDS011;7237;49.500;11.400;2023-12-14T13:36:41;9.33;;;8.07;;
14306;SDS011;7237;49.500;11.400;2023-12-14T13:39:08;9.83;;;7.53;;
14306;SDS011;7237;49.500;11.400;2023-12-14T13:41:36;10.27;;;6.50;;
14306;SDS011;7237;49.500;11.400;2023-12-14T13:44:03;6.67;;;5.97;;
14306;SDS011;7237;49.500;11.400;2023-12-14T13:46:30;7.70;;;6.80;;
14306;SDS011;7237;49.500;11.400;2023-12-14T13:48:57;9.57;;;5.93;;
14306;SDS011;7237;49.500;11.400;2023-12-14T13:51:25;7.17;;;6.47;;
14306;SDS011;7237;49.500;11.400;2023-12-14T13:53:53;11.30;;;7.10;;
14306;SDS011;7237;49.500;11.400;2023-12-14T13:56:20;10.27;;;6.67;;
14306;SDS011;7237;49.500;11.400;2023-12-14T13:58:48;10.13;;;7.50;;
14306;SDS011;7237;49.500;11.400;2023-12-14T14:01:15;7.73;;;6.13;;
14306;SDS011;7237;49.500;11.400;2023-12-14T14:03:42;7.10;;;6.40;;
14306;SDS011;7237;49.500;11.400;2023-12-14T14:06:11;8.43;;;6.73;;
14306;SDS011;7237;49.500;11.400;2023-12-14T14:08:38;6.07;;;5.47;;
14306;SDS011;7237;49.500;11.400;2023-12-14T14:11:07;7.33;;;4.77;;
14306;SDS011;7237;49.500;11.400;2023-12-14T14:13:34;6.90;;;4.57;;
14306;SDS011;7237;49.500;11.400;2023-12-14T14:16:01;6.33;;;4.50;;
14306;SDS011;7237;49.500;11.400;2023-12-14T14:18:29;4.77;;;4.37;;
14306;SDS011;7237;49.500;11.400;2023-12-14T14:20:57;6.30;;;4.80;;
14306;SDS011;7237;49.500;11.400;2023-12-14T14:23:26;6.57;;;4.97;;
14306;SDS011;7237;49.500;11.400;2023-12-14T14:25:53;6.20;;;4.43;;
14306;SDS011;7237;49.500;11.400;2023-12-14T14:28:21;5.00;;;4.50;;
14306;SDS011;7237;49.500;11.400;2023-12-14T14:30:49;4.53;;;3.63;;
14306;SDS011;7237;49.500;11.400;2023-12-14T14:33:16;5.00;;;4.50;;
14306;SDS011;7237;49.500;11.400;2023-12-14T14:35:43;4.80;;;3.77;;
14306;SDS011;7237;49.500;11.400;2023-12-14T14:38:11;4.00;;;3.60;;
14306;SDS011;7237;49.500;11.400;2023-12-14T14:40:38;5.20;;;4.50;;